»·PEaware :: N6515D KSBA-KSNA

N6515D :: KSBA-KSNA

FLIGHT INFORMATION

Flight Status: Arrived
Operator: Privately registered:
United States
More flights under this callsign
Pilot: Charles S. (11412)
Aircraft: Unknown
(DA62)
More flights by this aircraft type
Origin: KSBA Santa Barbara Mun
United States
Destination: KSNA John Wayne-Orange Co
United States
More flights between these airports :: More routes between these airports
Route: +KWANG CMA VNY V186 BAYJY V363 POXKU V8 SLI
File this flight plan on PilotEdge
Remarks:
Altitude:
(Current/Filed)
5,000ft
Speed:
(Current/Filed)
170kts
Departed: 24-May-18 03:03 PM
Arrived: 24-May-18 04:08 PM
Distance/Time
Traveled:
108nm/1:05
Distance/Time
To Go:
Arrived

Flight Plot

Page will automatically refresh every two minutes.


Map Options




Map Legend


Flown Route
Filed Route
Departure Airport
Arrival Airport
Navaid (VOR, NDB)
Fix

Horizontal Profiles

Position Reports

Time Latitude Longitude Heading Altitude Ground
Speed
24-May-18 14:50 34.432576 -119.835079 71 17ft 0kts
24-May-18 14:51 34.432576 -119.835079 71 17ft 0kts
24-May-18 14:52 34.432576 -119.835079 71 17ft 0kts
24-May-18 14:53 34.432576 -119.835079 71 17ft 0kts
24-May-18 14:54 34.432576 -119.835079 71 17ft 0kts
24-May-18 14:55 34.432576 -119.835079 71 17ft 0kts
24-May-18 14:56 34.432576 -119.835079 71 17ft 0kts
24-May-18 14:57 34.432583 -119.834790 210 17ft 4kts
24-May-18 14:58 34.432467 -119.835014 248 17ft 0kts
24-May-18 14:59 34.432467 -119.835014 248 17ft 0kts
24-May-18 15:00 34.432452 -119.835073 256 17ft 0kts
24-May-18 15:01 34.431255 -119.837963 250 17ft 19kts
24-May-18 15:02 34.430292 -119.840939 242 17ft 0kts
24-May-18 15:03 34.422010 -119.838833 169 82ft 90kts
24-May-18 15:04 34.398575 -119.829688 163 924ft 89kts
24-May-18 15:05 34.371635 -119.818531 163 1621ft 118kts
24-May-18 15:06 34.348114 -119.794642 100 2532ft 127kts
24-May-18 15:07 34.342863 -119.756269 100 3346ft 130kts
24-May-18 15:08 34.338924 -119.727547 101 3943ft 132kts
24-May-18 15:09 34.334944 -119.698681 101 4536ft 133kts
24-May-18 15:10 34.329995 -119.663081 102 5005ft 151kts
24-May-18 15:11 34.323825 -119.618651 101 5003ft 173kts
24-May-18 15:12 34.317102 -119.570271 101 5001ft 179kts
24-May-18 15:13 34.309094 -119.513889 105 4998ft 179kts
24-May-18 15:14 34.296781 -119.459548 108 5000ft 179kts
24-May-18 15:15 34.284279 -119.404696 108 5028ft 178kts
24-May-18 15:16 34.271226 -119.347891 109 5027ft 179kts
24-May-18 15:17 34.258408 -119.292163 109 5026ft 178kts
24-May-18 15:18 34.245800 -119.237466 109 5024ft 178kts
24-May-18 15:19 34.233590 -119.184590 109 5023ft 178kts
24-May-18 15:20 34.221817 -119.133733 109 5022ft 178kts
24-May-18 15:21 34.212889 -119.086127 92 5027ft 180kts
24-May-18 15:22 34.213814 -119.037377 91 5020ft 181kts
24-May-18 15:23 34.214826 -118.987445 91 5020ft 180kts
24-May-18 15:24 34.215815 -118.937226 91 5020ft 180kts
24-May-18 15:25 34.216747 -118.887427 92 5021ft 180kts
24-May-18 15:26 34.217339 -118.856810 91 5026ft 180kts
24-May-18 15:27 34.217946 -118.824229 91 5034ft 180kts
24-May-18 15:28 34.218616 -118.787812 91 5034ft 181kts
24-May-18 15:29 34.219138 -118.759195 91 5030ft 180kts
24-May-18 15:30 34.219613 -118.732614 91 5027ft 179kts
24-May-18 15:31 34.220112 -118.704179 92 5023ft 178kts
24-May-18 15:32 34.220583 -118.676901 92 5019ft 177kts
24-May-18 15:33 34.221042 -118.649862 92 5015ft 176kts
24-May-18 15:34 34.221549 -118.620835 92 5011ft 174kts
24-May-18 15:35 34.222102 -118.587926 92 5006ft 173kts
24-May-18 15:36 34.222691 -118.551844 91 5002ft 171kts
24-May-18 15:37 34.223241 -118.516842 91 5000ft 169kts
24-May-18 15:38 34.220638 -118.482233 109 4998ft 166kts
24-May-18 15:39 34.210580 -118.448779 108 5000ft 165kts
24-May-18 15:40 34.200984 -118.416944 107 5001ft 165kts
24-May-18 15:41 34.191310 -118.384963 107 5001ft 167kts
24-May-18 15:42 34.182966 -118.357452 107 5001ft 168kts
24-May-18 15:43 34.175698 -118.333519 108 5001ft 169kts
24-May-18 15:44 34.167422 -118.306308 108 5000ft 170kts
24-May-18 15:45 34.157597 -118.273754 110 5002ft 176kts
24-May-18 15:46 34.146445 -118.237313 110 5003ft 179kts
24-May-18 15:47 34.136185 -118.203683 111 5003ft 180kts
24-May-18 15:48 34.124060 -118.164015 112 5004ft 180kts
24-May-18 15:49 34.110161 -118.118675 113 5013ft 178kts
24-May-18 15:50 34.093326 -118.064047 113 5017ft 176kts
24-May-18 15:51 34.077229 -118.011713 113 5021ft 176kts
24-May-18 15:52 34.064306 -117.969710 113 5023ft 177kts
24-May-18 15:53 34.053372 -117.934226 112 5025ft 178kts
24-May-18 15:54 34.043434 -117.901973 112 5026ft 180kts
24-May-18 15:55 34.032328 -117.865984 112 5026ft 181kts
24-May-18 15:56 34.019252 -117.823703 111 5026ft 182kts
24-May-18 15:57 34.004174 -117.786786 149 5011ft 178kts
24-May-18 15:58 33.970877 -117.784401 183 5013ft 173kts
24-May-18 15:59 33.938238 -117.783281 165 4706ft 179kts
24-May-18 16:00 33.907471 -117.755164 141 3684ft 155kts
24-May-18 16:01 33.869057 -117.746627 205 2999ft 153kts
24-May-18 16:02 33.830159 -117.770609 209 2991ft 160kts
24-May-18 16:03 33.791349 -117.795316 208 2476ft 148kts
24-May-18 16:04 33.757925 -117.816587 208 1756ft 126kts
24-May-18 16:05 33.729176 -117.834859 208 1128ft 112kts
24-May-18 16:06 33.706254 -117.849418 208 636ft 78kts
24-May-18 16:07 33.687467 -117.861350 208 227ft 76kts
24-May-18 16:08 33.672488 -117.870901 230 60ft 25kts
24-May-18 16:09 33.674289 -117.871216 26 60ft 27kts
24-May-18 16:10 33.676030 -117.871220 25 60ft 0kts

Navigation Log

Ident Type
1. KSBA Airport
2. KWANG Fix
3. CMA Navaid
4. VNY Navaid
5. DARTS Fix
6. PURMS Fix
7. ELMOO Fix
8. ITSME Fix
9. PIRRO Fix
10. ADAMM Fix
11. BAYJY Fix
12. PRADO Fix
13. POXKU Fix
14. OLLIE Fix
15. AHEIM Fix
16. SLI Navaid
17. KSNA Airport